createdAt,value
2023-06-30T00:00:56.653Z,19.59
2023-06-30T00:03:26.924Z,19.61
2023-06-30T00:05:57.011Z,19.70
2023-06-30T00:08:29.562Z,19.67
2023-06-30T00:10:59.615Z,19.69
2023-06-30T00:13:29.749Z,19.71
2023-06-30T00:16:01.892Z,19.78
2023-06-30T00:18:33.764Z,19.88
2023-06-30T00:21:04.425Z,19.91
2023-06-30T00:23:36.919Z,19.98
2023-06-30T00:26:06.766Z,20.12
2023-06-30T00:28:36.694Z,20.24
2023-06-30T00:31:06.633Z,20.19
2023-06-30T00:33:36.609Z,20.11
2023-06-30T00:36:06.789Z,20.14
2023-06-30T00:38:39.361Z,20.13
2023-06-30T00:41:09.290Z,20.06
2023-06-30T00:43:39.947Z,20.16
2023-06-30T00:46:10.828Z,20.15
2023-06-30T00:48:40.782Z,19.99
2023-06-30T00:51:10.773Z,19.88
2023-06-30T00:53:43.670Z,19.75
2023-06-30T00:56:13.697Z,19.63
2023-06-30T00:58:43.616Z,19.61
2023-06-30T01:01:20.092Z,19.61
2023-06-30T01:03:55.645Z,19.53
2023-06-30T01:06:31.992Z,19.49
2023-06-30T01:09:07.642Z,19.39
2023-06-30T01:11:39.335Z,19.39
2023-06-30T01:14:10.646Z,19.41
2023-06-30T01:16:43.419Z,19.47
2023-06-30T01:19:22.483Z,19.46
2023-06-30T01:21:52.554Z,19.48
2023-06-30T01:24:29.978Z,19.43
2023-06-30T01:27:00.236Z,19.41
2023-06-30T01:29:30.180Z,19.33
2023-06-30T01:32:00.629Z,19.34
2023-06-30T01:34:30.586Z,19.39
2023-06-30T01:37:00.559Z,19.47
2023-06-30T01:39:33.569Z,19.58
2023-06-30T01:42:03.618Z,19.66
2023-06-30T01:44:33.639Z,19.68
2023-06-30T01:47:04.540Z,19.66
2023-06-30T01:49:36.491Z,19.66
2023-06-30T01:52:06.883Z,19.61
2023-06-30T01:54:39.484Z,19.51
2023-06-30T01:57:09.444Z,19.45
2023-06-30T01:59:39.365Z,19.48
2023-06-30T02:02:11.222Z,19.47
2023-06-30T02:04:41.428Z,19.49
2023-06-30T02:07:11.442Z,19.53
2023-06-30T02:09:48.504Z,19.54
2023-06-30T02:12:19.252Z,19.42
2023-06-30T02:14:49.243Z,19.41
2023-06-30T02:17:19.254Z,19.38
2023-06-30T02:19:49.181Z,19.27
2023-06-30T02:22:19.043Z,19.22
2023-06-30T02:24:51.561Z,19.13
2023-06-30T02:27:21.506Z,19.08
2023-06-30T02:29:51.425Z,19.08
2023-06-30T02:32:21.859Z,19.16
2023-06-30T02:34:51.994Z,19.15
2023-06-30T02:37:22.004Z,19.11
2023-06-30T02:39:55.644Z,19.04
2023-06-30T02:42:25.799Z,19.05
2023-06-30T02:44:55.838Z,19.14
2023-06-30T02:47:26.052Z,19.12
2023-06-30T02:49:56.023Z,19.06
2023-06-30T02:52:27.094Z,19.05
2023-06-30T02:55:00.518Z,18.98
2023-06-30T02:57:30.604Z,18.97
2023-06-30T03:00:00.866Z,19.04
2023-06-30T03:02:30.983Z,19.07
2023-06-30T03:05:01.055Z,19.16
2023-06-30T03:07:31.361Z,19.19
2023-06-30T03:10:04.401Z,19.20
2023-06-30T03:12:34.389Z,19.27
2023-06-30T03:15:04.475Z,19.33
2023-06-30T03:17:34.532Z,19.37
2023-06-30T03:20:11.225Z,19.42
2023-06-30T03:22:41.248Z,19.41
2023-06-30T03:25:14.738Z,19.44
2023-06-30T03:27:44.882Z,19.34
2023-06-30T03:30:17.591Z,19.12
2023-06-30T03:32:47.718Z,19.00
2023-06-30T03:35:17.837Z,18.87
2023-06-30T03:37:48.786Z,18.82
2023-06-30T03:40:21.567Z,18.77
2023-06-30T03:42:51.620Z,18.75
2023-06-30T03:45:21.760Z,18.79
2023-06-30T03:47:51.916Z,18.85
2023-06-30T03:50:22.334Z,18.90
2023-06-30T03:52:52.359Z,18.92
2023-06-30T03:55:25.056Z,18.86
2023-06-30T03:57:54.961Z,18.88
2023-06-30T04:00:25.313Z,18.91
2023-06-30T04:02:55.355Z,18.93
2023-06-30T04:05:25.393Z,18.96
2023-06-30T04:07:55.973Z,18.87
2023-06-30T04:10:28.683Z,18.79
2023-06-30T04:12:58.835Z,18.75
2023-06-30T04:15:28.825Z,18.74
2023-06-30T04:17:58.810Z,18.67
2023-06-30T04:20:29.308Z,18.63
2023-06-30T04:23:06.486Z,18.64
2023-06-30T04:25:40.762Z,18.57
2023-06-30T04:28:10.690Z,18.60
2023-06-30T04:30:41.489Z,18.59
2023-06-30T04:33:11.367Z,18.53
2023-06-30T04:35:45.910Z,18.54
2023-06-30T04:38:16.196Z,18.56
2023-06-30T04:40:49.130Z,18.55
2023-06-30T04:43:19.185Z,18.54
2023-06-30T04:45:49.246Z,18.55
2023-06-30T04:48:19.397Z,18.54
2023-06-30T04:50:49.394Z,18.58
2023-06-30T04:53:19.302Z,18.65
2023-06-30T04:55:51.823Z,18.69
2023-06-30T04:58:23.133Z,18.71
2023-06-30T05:00:53.283Z,18.69
2023-06-30T05:03:23.461Z,18.64
2023-06-30T05:05:54.491Z,18.69
2023-06-30T05:08:25.478Z,18.67
2023-06-30T05:10:58.194Z,18.66
2023-06-30T05:13:32.070Z,18.63
2023-06-30T05:16:02.088Z,18.54
2023-06-30T05:18:32.364Z,18.55
2023-06-30T05:21:05.397Z,18.48
2023-06-30T05:23:35.506Z,18.47
2023-06-30T05:26:10.417Z,18.45
2023-06-30T05:28:43.158Z,18.46
2023-06-30T05:31:17.191Z,18.39
2023-06-30T05:33:49.475Z,18.42
2023-06-30T05:36:21.788Z,18.42
2023-06-30T05:38:51.746Z,18.36
2023-06-30T05:41:24.324Z,18.25
2023-06-30T05:43:54.588Z,18.17
2023-06-30T05:46:26.240Z,18.10
2023-06-30T05:48:56.324Z,18.12
2023-06-30T05:51:26.290Z,18.12
2023-06-30T05:53:56.273Z,18.16
2023-06-30T05:56:28.953Z,18.17
2023-06-30T05:58:59.890Z,18.22
2023-06-30T06:01:30.023Z,18.30
2023-06-30T06:04:01.100Z,18.33
2023-06-30T06:06:34.606Z,18.35
2023-06-30T06:09:04.830Z,18.40
2023-06-30T06:11:37.960Z,18.37
2023-06-30T06:14:07.864Z,18.36
2023-06-30T06:16:39.981Z,18.36
2023-06-30T06:19:10.008Z,18.42
2023-06-30T06:21:40.267Z,18.49
2023-06-30T06:24:11.161Z,18.56
2023-06-30T06:26:44.875Z,18.61
2023-06-30T06:29:20.365Z,18.64
2023-06-30T06:31:50.533Z,18.64
2023-06-30T06:34:21.856Z,18.71
2023-06-30T06:36:52.217Z,18.78
2023-06-30T06:39:23.186Z,19.00
2023-06-30T06:41:55.830Z,19.13
2023-06-30T06:44:26.288Z,19.31
2023-06-30T06:47:34.745Z,19.54
2023-06-30T06:50:05.668Z,19.73
2023-06-30T06:52:36.150Z,19.92
2023-06-30T06:55:06.508Z,20.04
2023-06-30T06:57:41.459Z,20.16
2023-06-30T07:00:12.625Z,20.36
2023-06-30T07:02:42.730Z,20.58
2023-06-30T07:05:14.166Z,20.80
2023-06-30T07:07:44.214Z,20.91
2023-06-30T07:10:14.836Z,20.97
2023-06-30T07:12:47.489Z,21.16
2023-06-30T07:15:17.645Z,21.39
2023-06-30T07:17:49.778Z,21.57
2023-06-30T07:20:20.103Z,21.75
2023-06-30T07:22:50.800Z,21.91
2023-06-30T07:25:20.795Z,22.08
2023-06-30T07:27:58.387Z,22.22
2023-06-30T07:30:31.375Z,22.35
2023-06-30T07:33:01.879Z,22.42
2023-06-30T07:35:32.240Z,22.52
2023-06-30T07:38:04.805Z,22.75
2023-06-30T07:40:50.286Z,23.01
2023-06-30T07:43:28.414Z,23.09
2023-06-30T07:45:58.479Z,23.01
2023-06-30T07:48:28.538Z,23.10
2023-06-30T07:51:08.508Z,23.16
2023-06-30T07:53:40.190Z,23.25
2023-06-30T07:56:10.309Z,23.28
2023-06-30T07:58:42.860Z,23.41
2023-06-30T08:01:12.893Z,23.41
2023-06-30T08:03:42.894Z,23.60
2023-06-30T08:06:13.147Z,23.85
2023-06-30T08:08:43.287Z,23.91
2023-06-30T08:11:15.628Z,23.93
2023-06-30T08:13:48.191Z,23.98
2023-06-30T08:16:20.251Z,24.07
2023-06-30T08:18:52.001Z,24.28
2023-06-30T08:21:22.365Z,24.40
2023-06-30T08:23:53.439Z,24.44
2023-06-30T08:26:23.365Z,24.63
2023-06-30T08:28:56.798Z,24.67
2023-06-30T08:31:26.885Z,24.68
2023-06-30T08:33:57.179Z,24.95
2023-06-30T08:36:27.159Z,25.27
2023-06-30T08:38:57.142Z,25.29
2023-06-30T08:41:29.540Z,25.41
2023-06-30T08:44:03.183Z,25.35
2023-06-30T08:46:37.312Z,25.32
2023-06-30T08:49:08.049Z,25.46
2023-06-30T08:51:41.227Z,25.59
2023-06-30T08:54:13.996Z,25.42
2023-06-30T08:56:44.304Z,25.52
2023-06-30T08:59:16.815Z,25.68
2023-06-30T09:01:48.325Z,25.98
2023-06-30T09:04:18.703Z,26.22
2023-06-30T09:06:52.273Z,26.33
2023-06-30T09:09:29.309Z,26.49
2023-06-30T09:12:03.089Z,26.69
2023-06-30T09:14:38.305Z,27.00
2023-06-30T09:17:09.255Z,26.95
2023-06-30T09:19:39.202Z,27.03
2023-06-30T09:22:55.222Z,26.98
2023-06-30T09:25:00.575Z,27.01
2023-06-30T09:27:40.862Z,26.85
2023-06-30T09:30:15.251Z,26.85
2023-06-30T09:32:46.641Z,26.45
2023-06-30T09:35:18.814Z,26.68
2023-06-30T09:37:48.949Z,26.85
2023-06-30T09:40:19.430Z,26.93
2023-06-30T09:42:55.768Z,27.15
2023-06-30T09:45:28.304Z,27.11
2023-06-30T09:47:58.549Z,27.21
2023-06-30T09:50:28.885Z,27.32
2023-06-30T09:52:59.093Z,27.43
2023-06-30T09:55:29.093Z,27.45
2023-06-30T09:57:59.867Z,27.69
2023-06-30T10:00:36.467Z,27.99
2023-06-30T10:03:12.845Z,27.85
2023-06-30T10:05:44.381Z,27.86
2023-06-30T10:08:16.999Z,27.80
2023-06-30T10:10:47.650Z,27.62
2023-06-30T10:13:19.552Z,27.79
2023-06-30T10:15:52.620Z,27.61
2023-06-30T10:18:23.869Z,27.61
2023-06-30T10:20:53.974Z,27.76
2023-06-30T10:23:26.823Z,27.72
2023-06-30T10:25:58.961Z,27.66
2023-06-30T10:28:29.021Z,27.54
2023-06-30T10:31:01.604Z,27.82
2023-06-30T10:33:31.545Z,27.89
2023-06-30T10:36:03.180Z,27.96
2023-06-30T10:38:33.478Z,27.83
2023-06-30T10:41:18.728Z,27.65
2023-06-30T10:44:10.834Z,27.80
2023-06-30T10:47:07.615Z,27.96
2023-06-30T10:49:38.964Z,28.19
2023-06-30T10:52:15.447Z,28.02
2023-06-30T10:54:49.031Z,28.01
2023-06-30T10:57:23.069Z,27.94
2023-06-30T11:00:08.706Z,27.46
2023-06-30T11:02:49.970Z,27.27
2023-06-30T11:05:25.297Z,27.27
2023-06-30T11:07:56.520Z,27.31
2023-06-30T11:10:40.078Z,27.28
2023-06-30T11:13:11.379Z,27.36
2023-06-30T11:15:44.884Z,27.27
2023-06-30T11:18:19.088Z,27.25
2023-06-30T11:21:06.417Z,27.14
2023-06-30T11:23:37.828Z,27.13
2023-06-30T11:26:18.687Z,26.89
2023-06-30T11:28:51.337Z,27.17
2023-06-30T11:31:21.571Z,27.47
2023-06-30T11:33:55.521Z,27.66
2023-06-30T11:36:25.634Z,27.51
2023-06-30T11:38:55.775Z,27.33
2023-06-30T11:41:26.207Z,27.26
2023-06-30T11:43:57.637Z,27.17
2023-06-30T11:46:29.077Z,27.11
2023-06-30T11:49:02.085Z,27.08
2023-06-30T11:51:32.883Z,27.34
2023-06-30T11:54:02.810Z,27.40
2023-06-30T11:56:32.690Z,27.36
2023-06-30T11:59:02.637Z,27.51
2023-06-30T12:01:32.638Z,27.61
2023-06-30T12:04:38.442Z,27.68
2023-06-30T12:07:08.675Z,27.66
2023-06-30T12:09:39.052Z,27.38
2023-06-30T12:12:09.850Z,27.56
2023-06-30T12:14:44.590Z,27.86
2023-06-30T12:17:14.508Z,28.20
2023-06-30T12:19:49.098Z,28.30
2023-06-30T12:22:28.663Z,28.48
2023-06-30T12:24:59.447Z,28.32
2023-06-30T12:27:32.761Z,27.99
2023-06-30T12:30:03.227Z,27.75
2023-06-30T12:32:34.662Z,27.50
2023-06-30T12:35:08.863Z,27.68
2023-06-30T12:37:42.089Z,27.98
2023-06-30T12:40:13.065Z,28.22
2023-06-30T12:42:42.987Z,28.28
2023-06-30T12:45:13.643Z,28.39
2023-06-30T12:47:43.691Z,28.73
2023-06-30T12:50:16.643Z,29.05
2023-06-30T12:52:46.918Z,29.33
2023-06-30T12:55:18.560Z,29.51
2023-06-30T12:57:48.869Z,29.57
2023-06-30T13:00:19.890Z,29.69
2023-06-30T13:02:49.786Z,29.65
2023-06-30T13:05:22.494Z,29.58
2023-06-30T13:07:52.349Z,29.43
2023-06-30T13:10:22.280Z,29.31
2023-06-30T13:12:53.921Z,29.24
2023-06-30T13:15:23.938Z,29.14
2023-06-30T13:17:53.865Z,28.88
2023-06-30T13:20:26.614Z,28.74
2023-06-30T13:23:10.557Z,28.95
2023-06-30T13:25:44.926Z,29.09
2023-06-30T13:28:15.181Z,29.34
2023-06-30T13:30:45.206Z,29.54
2023-06-30T13:33:15.267Z,29.50
2023-06-30T13:35:47.920Z,29.67
2023-06-30T13:38:19.412Z,29.62
2023-06-30T13:40:49.432Z,29.64
2023-06-30T13:43:19.362Z,29.70
2023-06-30T13:45:49.524Z,29.65
2023-06-30T13:48:19.443Z,29.63
2023-06-30T13:50:51.964Z,29.61
2023-06-30T13:53:23.278Z,29.31
2023-06-30T13:55:53.955Z,29.00
2023-06-30T13:58:23.892Z,28.98
2023-06-30T14:00:53.891Z,29.17
2023-06-30T14:03:23.866Z,29.33
2023-06-30T14:05:56.504Z,29.47
2023-06-30T14:08:26.642Z,29.59
2023-06-30T14:10:57.654Z,29.56
2023-06-30T14:13:29.880Z,29.39
2023-06-30T14:15:59.853Z,29.15
2023-06-30T14:18:29.723Z,29.17
2023-06-30T14:21:02.786Z,29.19
2023-06-30T14:23:32.894Z,29.15
2023-06-30T14:26:03.354Z,29.12
2023-06-30T14:28:33.294Z,29.08
2023-06-30T14:31:03.311Z,29.11
2023-06-30T14:33:33.320Z,29.05
2023-06-30T14:36:06.445Z,28.83
2023-06-30T14:38:37.382Z,28.66
2023-06-30T14:41:07.448Z,28.67
2023-06-30T14:43:37.348Z,28.71
2023-06-30T14:46:07.634Z,28.93
2023-06-30T14:48:37.600Z,29.06
2023-06-30T14:51:10.109Z,29.09
2023-06-30T14:53:40.046Z,29.19
2023-06-30T14:56:10.838Z,29.24
2023-06-30T14:58:40.798Z,29.34
2023-06-30T15:01:10.665Z,29.24
2023-06-30T15:03:41.329Z,29.35
2023-06-30T15:06:13.853Z,29.45
2023-06-30T15:08:44.074Z,29.50
2023-06-30T15:11:13.999Z,29.17
2023-06-30T15:13:43.917Z,29.18
2023-06-30T15:16:13.813Z,29.28
2023-06-30T15:18:43.779Z,29.44
2023-06-30T15:21:16.618Z,29.23
2023-06-30T15:23:46.610Z,29.19
2023-06-30T15:26:16.495Z,29.08
2023-06-30T15:28:46.381Z,29.14
2023-06-30T15:31:16.346Z,29.27
2023-06-30T15:33:46.678Z,29.33
2023-06-30T15:36:19.332Z,29.30
2023-06-30T15:38:49.222Z,29.42
2023-06-30T15:41:23.103Z,29.49
2023-06-30T15:43:54.381Z,29.29
2023-06-30T15:46:24.365Z,28.97
2023-06-30T15:48:54.250Z,28.85
2023-06-30T15:51:26.922Z,28.75
2023-06-30T15:53:56.864Z,28.71
2023-06-30T15:56:26.707Z,28.65
2023-06-30T15:58:56.683Z,28.58
2023-06-30T16:01:26.668Z,28.49
2023-06-30T16:03:56.672Z,28.11
2023-06-30T16:06:29.282Z,27.97
2023-06-30T16:08:59.207Z,27.88
2023-06-30T16:11:29.200Z,27.99
2023-06-30T16:14:01.864Z,28.03
2023-06-30T16:16:31.883Z,27.99
2023-06-30T16:19:03.360Z,27.87
2023-06-30T16:21:35.966Z,27.85
2023-06-30T16:24:05.867Z,27.82
2023-06-30T16:26:38.064Z,27.63
2023-06-30T16:29:08.003Z,27.60
2023-06-30T16:31:37.893Z,27.54
2023-06-30T16:34:08.139Z,27.53
2023-06-30T16:36:41.218Z,27.45
2023-06-30T16:39:11.171Z,27.49
2023-06-30T16:41:41.170Z,27.34
2023-06-30T16:44:11.141Z,27.26
2023-06-30T16:46:41.292Z,27.16
2023-06-30T16:49:12.554Z,27.18
2023-06-30T16:51:45.218Z,27.24
2023-06-30T16:54:15.300Z,27.12
2023-06-30T16:56:45.267Z,27.01
2023-06-30T16:59:15.231Z,26.99
2023-06-30T17:01:45.499Z,26.88
2023-06-30T17:04:25.918Z,26.70
2023-06-30T17:06:58.550Z,26.61
2023-06-30T17:09:28.461Z,26.60
2023-06-30T17:11:58.606Z,26.66
2023-06-30T17:14:28.572Z,26.66
2023-06-30T17:16:58.590Z,26.59
2023-06-30T17:19:28.909Z,26.61
2023-06-30T17:22:02.544Z,26.68
2023-06-30T17:24:34.861Z,26.61
2023-06-30T17:27:04.769Z,26.61
2023-06-30T17:29:34.728Z,26.63
2023-06-30T17:32:05.210Z,26.56
2023-06-30T17:34:35.131Z,26.54
2023-06-30T17:37:10.892Z,26.29
2023-06-30T17:39:40.845Z,26.28
2023-06-30T17:42:11.500Z,26.31
2023-06-30T17:44:42.783Z,26.28
2023-06-30T17:47:13.122Z,26.28
2023-06-30T17:49:44.072Z,26.21
2023-06-30T17:52:17.275Z,26.16
2023-06-30T17:54:47.327Z,26.12
2023-06-30T17:57:17.540Z,26.14
2023-06-30T17:59:47.411Z,26.14
2023-06-30T18:02:17.997Z,26.01
2023-06-30T18:04:48.511Z,25.99
2023-06-30T18:07:21.071Z,25.89
2023-06-30T18:09:51.291Z,25.75
2023-06-30T18:12:21.201Z,25.63
2023-06-30T18:14:51.118Z,25.55
2023-06-30T18:17:21.155Z,25.51
2023-06-30T18:19:51.151Z,25.48
2023-06-30T18:22:26.829Z,25.47
2023-06-30T18:24:56.768Z,25.49
2023-06-30T18:27:26.656Z,25.39
2023-06-30T18:29:56.499Z,25.30
2023-06-30T18:32:26.855Z,25.22
2023-06-30T18:34:57.020Z,25.18
2023-06-30T18:37:30.495Z,25.14
2023-06-30T18:40:00.455Z,25.11
2023-06-30T18:42:30.486Z,25.08
2023-06-30T18:45:00.551Z,25.10
2023-06-30T18:47:30.542Z,25.08
2023-06-30T18:50:00.655Z,25.06
2023-06-30T18:52:33.196Z,25.05
2023-06-30T18:55:03.395Z,24.95
2023-06-30T18:57:34.778Z,24.96
2023-06-30T19:00:04.761Z,24.97
2023-06-30T19:02:34.837Z,24.97
2023-06-30T19:05:05.024Z,24.90
2023-06-30T19:07:37.839Z,24.91
2023-06-30T19:10:08.882Z,24.89
2023-06-30T19:12:38.863Z,24.83
2023-06-30T19:15:10.548Z,24.83
2023-06-30T19:17:40.465Z,24.77
2023-06-30T19:20:11.264Z,24.73
2023-06-30T19:22:44.060Z,24.74
2023-06-30T19:25:14.227Z,24.73
2023-06-30T19:27:44.457Z,24.64
2023-06-30T19:30:15.679Z,24.57
2023-06-30T19:32:45.610Z,24.48
2023-06-30T19:35:15.645Z,24.45
2023-06-30T19:37:48.155Z,24.41
2023-06-30T19:40:19.017Z,24.36
2023-06-30T19:42:49.043Z,24.33
2023-06-30T19:45:18.969Z,24.31
2023-06-30T19:47:49.366Z,24.24
2023-06-30T19:50:24.186Z,24.10
2023-06-30T19:52:56.956Z,24.07
2023-06-30T19:55:26.911Z,23.96
2023-06-30T19:57:58.271Z,23.83
2023-06-30T20:00:28.167Z,23.74
2023-06-30T20:02:58.117Z,23.66
2023-06-30T20:05:28.444Z,23.53
2023-06-30T20:08:03.589Z,23.43
2023-06-30T20:10:33.507Z,23.41
2023-06-30T20:13:05.450Z,23.39
2023-06-30T20:15:36.124Z,23.40
2023-06-30T20:18:06.092Z,23.42
2023-06-30T20:20:36.048Z,23.43
2023-06-30T20:23:08.592Z,23.43
2023-06-30T20:25:38.535Z,23.42
2023-06-30T20:28:08.589Z,23.42
2023-06-30T20:30:39.369Z,23.43
2023-06-30T20:33:09.375Z,23.41
2023-06-30T20:35:39.309Z,23.35
2023-06-30T20:38:11.974Z,23.32
2023-06-30T20:40:41.943Z,23.33
2023-06-30T20:43:11.826Z,23.32
2023-06-30T20:45:41.801Z,23.32
2023-06-30T20:48:12.324Z,23.29
2023-06-30T20:50:42.221Z,23.19
2023-06-30T20:53:14.715Z,23.05
2023-06-30T20:55:44.792Z,22.97
2023-06-30T20:58:14.714Z,22.89
2023-06-30T21:00:44.821Z,22.86
2023-06-30T21:03:15.037Z,22.79
2023-06-30T21:05:45.191Z,22.76
2023-06-30T21:08:17.842Z,22.75
2023-06-30T21:10:47.897Z,22.71
2023-06-30T21:13:18.284Z,22.66
2023-06-30T21:15:48.248Z,22.62
2023-06-30T21:18:18.488Z,22.60
2023-06-30T21:20:48.682Z,22.55
2023-06-30T21:23:21.504Z,22.51
2023-06-30T21:25:51.404Z,22.46
2023-06-30T21:28:21.398Z,22.44
2023-06-30T21:30:51.407Z,22.42
2023-06-30T21:33:21.874Z,22.37
2023-06-30T21:35:51.917Z,22.27
2023-06-30T21:38:27.227Z,22.17
2023-06-30T21:40:57.286Z,22.16
2023-06-30T21:43:27.212Z,22.10
2023-06-30T21:46:01.715Z,22.05
2023-06-30T21:48:31.751Z,21.98
2023-06-30T21:51:01.699Z,21.96
2023-06-30T21:53:34.214Z,21.97
2023-06-30T21:56:04.321Z,22.01
2023-06-30T21:58:34.303Z,21.93
2023-06-30T22:01:04.522Z,21.80
2023-06-30T22:03:37.912Z,21.75
2023-06-30T22:06:08.080Z,21.75
2023-06-30T22:08:40.565Z,21.77
2023-06-30T22:11:11.321Z,21.80
2023-06-30T22:13:41.346Z,21.76
2023-06-30T22:16:11.561Z,21.76
2023-06-30T22:18:42.406Z,21.76
2023-06-30T22:21:12.302Z,21.73
2023-06-30T22:23:45.700Z,21.65
2023-06-30T22:26:16.797Z,21.59
2023-06-30T22:28:48.231Z,21.49
2023-06-30T22:31:18.241Z,21.48
2023-06-30T22:33:48.328Z,21.49
2023-06-30T22:36:18.148Z,21.47
2023-06-30T22:38:51.100Z,21.46
2023-06-30T22:41:21.086Z,21.43
2023-06-30T22:43:52.661Z,21.35
2023-06-30T22:46:22.579Z,21.34
2023-06-30T22:48:52.483Z,21.33
2023-06-30T22:51:23.982Z,21.32
2023-06-30T22:53:57.003Z,21.34
2023-06-30T22:56:27.026Z,21.35
2023-06-30T22:58:57.035Z,21.29
2023-06-30T23:01:26.880Z,21.21
2023-06-30T23:03:56.887Z,21.20
2023-06-30T23:06:26.900Z,21.19
2023-06-30T23:08:59.460Z,21.16
2023-06-30T23:11:29.346Z,21.13
2023-06-30T23:13:59.523Z,21.15
2023-06-30T23:16:29.427Z,21.12
2023-06-30T23:18:59.565Z,21.13
2023-06-30T23:21:29.457Z,21.18
2023-06-30T23:24:02.024Z,21.23
2023-06-30T23:26:31.986Z,21.29
2023-06-30T23:29:01.855Z,21.35
2023-06-30T23:31:34.295Z,21.41
2023-06-30T23:34:05.936Z,21.43
2023-06-30T23:36:36.528Z,21.44
2023-06-30T23:39:09.038Z,21.44
2023-06-30T23:41:39.309Z,21.41
2023-06-30T23:44:09.200Z,21.30
2023-06-30T23:46:39.380Z,21.29
2023-06-30T23:49:09.280Z,21.32
2023-06-30T23:51:39.160Z,21.30
2023-06-30T23:54:11.684Z,21.30
2023-06-30T23:56:41.571Z,21.29
2023-06-30T23:59:11.702Z,21.29
